Decoded Metar for KTTN (TRENTON in NJ, USA) (IATA:TTN) | Meteo·Mobile Aviation Weather
aviador You're here:

KTTN Decoded Metar

TRENTON in NJ, USA
Report Time2018-10-19 18:53:00
UTC Time2018-10-19 19:26:37
Flight Rules vfr VFR
Wind220° at 10 Gusting to 16 kt
W.Decomp.*RWY 24: 9.9 kt HW 1.4 kt LCW
RWY 16: 3.1 kt HW 9.5 kt RCW
W.Rank220° ranks 10
Current wind is above 220° avg. (6.7)
Visibility9999 m
Phenomena:N/A
Clouds:N/A
Expected CloudBase > 5,600 ft AGL from Temp-Dew spread
CeilingNone
Temp16°C (ISA +1)
Dew Point02°C (39% RH)
AAT10.7°C
QNH1020 hPa
Density Alt220 ft
Elevation194 ft
Report Wrong Elevation
Raw Report
KTTN 191853Z 22010G16KT 10SM CLR 16/02 A3013 RMK AO2 PRESFR SLP198
T01560022=

Extra information for KTTN:More info

Metar Taf Metar & Taf Last 4 Metars F.Rules Stats Wind Profile Meteogram Temp Stats Airport Information Weather charts Add Link Nearby VenuesMetar ALERT Operation Metar Decoded Social comments

AIRNAV info for KTTN